Time;durP1;ratioP1;P1;durP2;ratioP2;P2;SDS_P1;SDS_P2;PMS_P1;PMS_P2;Temp;Humidity;BMP_temperature;BMP_pressure;BME280_temperature;BME280_humidity;BME280_pressure;Samples;Min_cycle;Max_cycle;Signal;HPM_P1;HPM_P2
2022/03/02 00:04:53;;;;;;;18.52;11.85;;;;;;;3.19;50.59;101554.16;8244370;34;20244;-75
2022/03/02 00:09:56;;;;;;;19.13;12.50;;;;;;;3.13;50.81;101549.03;8241617;34;20239;-75
2022/03/02 00:15:00;;;;;;;21.48;13.43;;;;;;;3.04;51.23;101539.59;8247936;34;20255;-75
2022/03/02 00:20:05;;;;;;;21.70;11.95;;;;;;;2.98;51.18;101536.22;8248208;34;20428;-75
2022/03/02 00:25:09;;;;;;;19.10;11.88;;;;;;;2.98;51.64;101536.22;8249132;34;21019;-75
2022/03/02 00:30:14;;;;;;;21.17;12.10;;;;;;;3.06;50.90;101510.31;8244805;34;20613;-75
2022/03/02 00:35:17;;;;;;;20.95;13.05;;;;;;;3.11;49.48;101508.38;8248732;34;20443;-75
2022/03/02 00:40:20;;;;;;;21.95;11.90;;;;;;;3.03;48.96;101516.59;8248761;34;20982;-75
2022/03/02 00:45:25;;;;;;;17.70;11.68;;;;;;;3.01;49.48;101525.50;8250302;34;20557;-75
2022/03/02 00:50:29;;;;;;;20.63;11.98;;;;;;;2.98;49.94;101528.28;8249790;34;20926;-75
2022/03/02 00:55:33;;;;;;;21.95;13.43;;;;;;;2.94;50.15;101519.53;8249313;34;21119;-75
2022/03/02 01:00:38;;;;;;;18.60;11.82;;;;;;;2.81;52.10;101520.84;8248884;35;20655;-75
2022/03/02 01:05:41;;;;;;;18.17;11.52;;;;;;;2.66;52.96;101510.66;8249826;34;20438;-75
2022/03/02 01:10:45;;;;;;;23.98;12.73;;;;;;;2.66;53.31;101506.25;8249688;35;20420;-75
2022/03/02 01:15:49;;;;;;;21.23;12.52;;;;;;;2.74;53.87;101511.31;8243303;34;20196;-75
2022/03/02 01:20:53;;;;;;;22.70;12.13;;;;;;;2.66;53.75;101497.41;8246582;34;20428;-75
2022/03/02 01:25:56;;;;;;;24.80;13.00;;;;;;;2.61;53.73;101493.13;8260940;34;20678;-75
2022/03/02 01:31:01;;;;;;;18.58;11.88;;;;;;;2.64;54.33;101489.50;8263567;34;20156;-75
2022/03/02 01:36:04;;;;;;;20.50;12.10;;;;;;;2.67;54.31;101480.59;8255311;34;20556;-75
2022/03/02 01:41:07;;;;;;;18.40;11.65;;;;;;;2.65;54.22;101483.28;8252863;34;20334;-75
2022/03/02 01:46:12;;;;;;;20.15;11.57;;;;;;;2.64;54.36;101475.38;8248601;34;20246;-75
2022/03/02 01:51:16;;;;;;;21.17;11.50;;;;;;;2.67;53.84;101469.97;8248044;34;20454;-75
2022/03/02 01:56:19;;;;;;;21.58;10.52;;;;;;;2.67;53.59;101469.97;8252067;34;20554;-75
2022/03/02 02:01:24;;;;;;;18.27;10.88;;;;;;;2.67;52.12;101460.22;8252277;34;20450;-75
2022/03/02 02:06:28;;;;;;;18.65;10.68;;;;;;;2.74;51.90;101450.28;8251739;34;20531;-75
2022/03/02 02:11:33;;;;;;;19.83;11.65;;;;;;;2.69;52.39;101441.59;8252164;34;20442;-75
2022/03/02 02:16:38;;;;;;;19.00;10.48;;;;;;;2.65;52.37;101445.28;8251855;34;20706;-75
2022/03/02 02:21:45;;;;;;;16.73;10.07;;;;;;;2.71;52.36;101445.94;8250044;34;20502;-75
2022/03/02 02:26:48;;;;;;;20.30;11.13;;;;;;;2.73;52.92;101437.94;8252074;34;21066;-75
2022/03/02 02:31:52;;;;;;;19.27;11.10;;;;;;;2.71;53.04;101427.34;8251134;34;20567;-75
2022/03/02 02:36:58;;;;;;;20.38;10.93;;;;;;;2.75;53.17;101430.81;8252904;34;20935;-75
2022/03/02 02:42:05;;;;;;;19.45;12.40;;;;;;;2.69;53.04;101423.00;8248469;34;20643;-75
2022/03/02 02:47:08;;;;;;;21.33;13.15;;;;;;;2.72;53.74;101426.47;8246552;34;20685;-75
2022/03/02 02:52:13;;;;;;;19.70;12.40;;;;;;;2.64;54.01;101423.19;8246038;34;20145;-75
2022/03/02 02:57:16;;;;;;;24.08;13.85;;;;;;;2.65;54.21;101418.75;8245861;34;20655;-74
2022/03/02 03:02:19;;;;;;;25.98;14.00;;;;;;;2.70;53.67;101416.81;8248557;34;20427;-75
2022/03/02 03:07:24;;;;;;;22.38;13.30;;;;;;;2.66;53.68;101417.81;8251404;34;20476;-75
2022/03/02 03:12:27;;;;;;;23.08;13.68;;;;;;;2.65;53.87;101409.00;8249894;34;20188;-75
2022/03/02 03:17:30;;;;;;;21.27;13.88;;;;;;;2.65;54.93;101424.91;8250251;34;20308;-75
2022/03/02 03:22:35;;;;;;;27.00;14.00;;;;;;;2.58;56.04;101423.38;8246056;34;20474;-75
2022/03/02 03:27:38;;;;;;;23.75;13.55;;;;;;;2.46;56.51;101424.56;8244826;34;20645;-76
2022/03/02 03:32:42;;;;;;;24.38;13.80;;;;;;;2.46;56.96;101413.97;8244611;34;20443;-76
2022/03/02 03:37:47;;;;;;;22.80;13.15;;;;;;;2.63;56.07;101412.59;8291822;28;20148;-73
2022/03/02 03:42:52;;;;;;;21.48;12.75;;;;;;;2.57;55.57;101405.72;8298386;34;20230;-74
2022/03/02 03:47:55;;;;;;;29.63;14.20;;;;;;;2.58;56.88;101413.63;8262434;34;20144;-73
2022/03/02 03:52:59;;;;;;;23.55;13.75;;;;;;;2.53;56.33;101419.97;8247154;34;20201;-73
2022/03/02 03:58:02;;;;;;;22.83;13.20;;;;;;;2.52;56.61;101412.91;8253246;34;20547;-75
2022/03/02 04:03:05;;;;;;;25.17;14.43;;;;;;;2.60;55.81;101403.81;8248718;34;20608;-72
2022/03/02 04:08:11;;;;;;;26.08;13.63;;;;;;;2.67;54.71;101406.31;8243670;34;20451;-75
2022/03/02 04:13:14;;;;;;;20.80;13.38;;;;;;;2.66;54.00;101389.53;8242552;34;20272;-73
2022/03/02 04:18:17;;;;;;;20.08;13.68;;;;;;;2.52;53.85;101397.00;8244815;34;20624;-74
2022/03/02 04:23:22;;;;;;;22.98;12.73;;;;;;;2.35;54.59;101394.88;8248392;34;20435;-73
2022/03/02 04:28:25;;;;;;;19.48;11.32;;;;;;;2.28;53.65;101388.03;8246207;34;20536;-73
2022/03/02 04:33:29;;;;;;;19.33;10.75;;;;;;;2.31;52.31;101383.50;8245368;34;20999;-74
2022/03/02 04:38:33;;;;;;;17.70;10.48;;;;;;;2.28;51.59;101380.06;8245763;34;20152;-74
2022/03/02 04:43:36;;;;;;;15.98;9.55;;;;;;;2.26;50.88;101373.94;8246656;34;20551;-73
2022/03/02 04:48:39;;;;;;;16.92;9.48;;;;;;;2.28;50.78;101370.34;8243406;34;20554;-74
2022/03/02 04:53:44;;;;;;;21.00;10.43;;;;;;;2.23;50.87;101360.78;8242250;35;20506;-73
2022/03/02 04:58:47;;;;;;;17.17;9.40;;;;;;;2.16;51.41;101368.03;8243894;34;20205;-74
2022/03/02 05:03:50;;;;;;;18.52;9.75;;;;;;;2.11;51.83;101354.06;8247104;34;20559;-75
2022/03/02 05:08:54;;;;;;;16.95;10.15;;;;;;;2.06;52.29;101353.34;8250424;34;20453;-74
2022/03/02 05:13:57;;;;;;;19.87;11.17;;;;;;;1.97;52.53;101353.59;8249517;34;20595;-74
2022/03/02 05:19:00;;;;;;;15.93;10.35;;;;;;;1.92;53.45;101351.97;8253524;34;20648;-74
2022/03/02 05:24:06;;;;;;;17.42;10.60;;;;;;;1.86;53.63;101349.47;8251800;34;21045;-75
2022/03/02 05:29:09;;;;;;;17.30;10.40;;;;;;;1.78;53.99;101350.63;8245632;34;20518;-74
2022/03/02 05:34:12;;;;;;;16.15;10.20;;;;;;;1.75;54.07;101348.94;8245118;34;20538;-75
2022/03/02 05:39:17;;;;;;;21.80;12.40;;;;;;;1.78;54.44;101351.50;8243225;34;20464;-75
2022/03/02 05:44:20;;;;;;;18.00;11.45;;;;;;;1.79;55.22;101341.78;8239841;34;20188;-75
2022/03/02 05:49:23;;;;;;;19.80;11.60;;;;;;;1.77;55.74;101344.47;8238625;34;20145;-74
2022/03/02 05:54:28;;;;;;;18.80;12.20;;;;;;;1.73;56.40;101341.03;8238535;34;20597;-74
2022/03/02 05:59:31;;;;;;;24.00;14.13;;;;;;;1.66;57.28;101349.22;8235604;34;20669;-74
2022/03/02 06:04:34;;;;;;;31.77;16.27;;;;;;;1.70;58.12;101357.03;8237187;34;20362;-73
2022/03/02 06:09:39;;;;;;;49.20;24.65;;;;;;;1.67;58.67;101351.81;8238530;34;20637;-75
2022/03/02 06:14:43;;;;;;;57.70;26.60;;;;;;;1.65;59.09;101350.13;8238992;34;20180;-73
2022/03/02 06:19:47;;;;;;;42.13;21.40;;;;;;;1.64;59.59;101358.97;8243977;34;20692;-74
2022/03/02 06:24:52;;;;;;;33.88;17.10;;;;;;;1.62;59.55;101363.44;8249191;34;20156;-73
2022/03/02 06:29:55;;;;;;;34.70;18.35;;;;;;;1.57;60.25;101378.63;8248711;34;20492;-74
2022/03/02 06:34:59;;;;;;;34.17;16.97;;;;;;;1.46;61.29;101371.81;8258902;34;20429;-75
2022/03/02 06:40:07;;;;;;;25.70;13.95;;;;;;;1.44;61.54;101378.06;8263151;34;20509;-74
2022/03/02 06:45:16;;;;;;;24.85;14.77;;;;;;;1.50;61.76;101384.06;8257594;34;20156;-73
2022/03/02 06:50:25;;;;;;;26.85;14.80;;;;;;;1.46;62.01;101387.72;8249948;34;20149;-75
2022/03/02 06:55:31;;;;;;;29.40;16.17;;;;;;;1.38;62.47;101371.16;8251284;34;20458;-73
2022/03/02 07:00:35;;;;;;;31.25;16.33;;;;;;;1.53;62.32;101359.28;8246702;34;20195;-73
2022/03/02 07:05:40;;;;;;;25.27;14.55;;;;;;;1.65;61.21;101366.88;8245548;34;20623;-73
2022/03/02 07:10:44;;;;;;;15.00;7.70;;;;;;;1.97;59.16;101366.84;8244164;34;20214;-75
2022/03/02 07:15:48;;;;;;;19.73;11.68;;;;;;;3.00;55.57;101368.03;8245215;34;20435;-75
2022/03/02 07:20:52;;;;;;;18.40;10.57;;;;;;;3.56;53.28;101366.09;8243063;34;20309;-75
2022/03/02 07:26:00;;;;;;;16.58;9.88;;;;;;;4.37;50.98;101358.56;8241080;34;20527;-74
2022/03/02 07:32:19;;;;;;;15.20;9.45;;;;;;;5.45;48.63;101357.63;8966653;28;20250;-75
2022/03/02 07:37:23;;;;;;;14.98;9.55;;;;;;;6.16;46.04;101360.59;8296106;34;20680;-75
2022/03/02 07:42:28;;;;;;;18.33;10.77;;;;;;;6.05;45.13;101359.38;8268979;34;20620;-75
2022/03/02 07:47:31;;;;;;;18.42;10.90;;;;;;;5.86;45.24;101367.38;8242846;34;20157;-75
2022/03/02 07:52:38;;;;;;;20.77;11.80;;;;;;;5.54;44.90;101377.69;8238619;34;20652;-75
2022/03/02 07:57:43;;;;;;;16.75;10.10;;;;;;;4.95;45.54;101367.78;8235532;34;20873;-76
2022/03/02 08:02:49;;;;;;;15.50;9.93;;;;;;;4.51;47.23;101365.13;8231753;34;20438;-75
2022/03/02 08:07:53;;;;;;;16.45;10.07;;;;;;;4.23;47.46;101371.56;8239947;34;20438;-74
2022/03/02 08:12:58;;;;;;;15.88;10.18;;;;;;;4.56;47.44;101376.47;8247755;34;20420;-74
2022/03/02 08:18:02;;;;;;;15.23;10.35;;;;;;;5.43;45.15;101370.16;8261665;34;20173;-75
2022/03/02 08:23:30;;;;;;;15.93;10.63;;;;;;;5.70;43.87;101357.41;8252788;34;20147;-74
2022/03/02 08:28:36;;;;;;;17.75;10.43;;;;;;;6.06;42.95;101366.44;8247113;34;20203;-75
2022/03/02 08:33:42;;;;;;;17.40;10.52;;;;;;;6.89;41.96;101362.50;8243056;34;20141;-74
2022/03/02 08:38:45;;;;;;;21.65;11.20;;;;;;;6.95;40.70;101357.69;8243232;34;20893;-75
2022/03/02 08:43:50;;;;;;;18.70;9.98;;;;;;;6.93;39.10;101346.22;8257469;34;20443;-76
2022/03/02 08:48:54;;;;;;;16.98;10.32;;;;;;;7.08;40.18;101346.41;8241129;34;20144;-76
2022/03/02 08:54:01;;;;;;;14.10;8.98;;;;;;;7.58;37.96;101337.53;8238448;34;20657;-75
2022/03/02 08:59:07;;;;;;;15.60;10.13;;;;;;;7.86;37.87;101321.72;8240864;35;20149;-75
2022/03/02 09:04:15;;;;;;;15.40;10.07;;;;;;;8.12;37.01;101314.09;8231644;34;20625;-75
2022/03/02 09:09:19;;;;;;;14.65;10.07;;;;;;;9.01;36.35;101315.16;8246825;35;20436;-76
2022/03/02 09:14:25;;;;;;;20.00;10.18;;;;;;;9.00;35.10;101320.63;8248007;34;20924;-75
2022/03/02 09:19:29;;;;;;;16.05;9.88;;;;;;;8.84;35.71;101318.00;8247918;35;20445;-75
2022/03/02 09:24:32;;;;;;;15.13;9.73;;;;;;;9.07;34.64;101319.28;8247199;34;20587;-76
2022/03/02 09:29:38;;;;;;;17.65;9.63;;;;;;;8.82;34.57;101325.25;8247254;35;20693;-76
2022/03/02 09:34:48;;;;;;;15.68;8.93;;;;;;;8.22;34.69;101330.47;8246185;34;20161;-76
2022/03/02 09:39:52;;;;;;;15.05;9.77;;;;;;;8.34;35.21;101336.00;8246298;35;20531;-75
2022/03/02 09:45:04;;;;;;;14.48;9.40;;;;;;;8.60;34.43;101329.19;8246654;34;20259;-75
2022/03/02 09:50:11;;;;;;;14.38;9.02;;;;;;;9.22;34.88;101337.16;8248479;34;20436;-75
2022/03/02 09:55:21;;;;;;;12.55;8.88;;;;;;;9.57;33.35;101331.47;8243109;34;20228;-75
2022/03/02 10:00:29;;;;;;;12.73;9.63;;;;;;;9.52;33.34;101330.88;8240455;34;25442;-75
2022/03/02 10:05:34;;;;;;;14.63;8.95;;;;;;;10.11;34.42;101328.94;8241329;34;20558;-75
2022/03/02 10:10:40;;;;;;;13.60;8.55;;;;;;;10.00;32.21;101319.88;8244757;34;21665;-75
2022/03/02 10:15:45;;;;;;;12.15;8.50;;;;;;;10.20;33.22;101323.94;8242947;34;20431;-75
2022/03/02 10:20:53;;;;;;;14.18;8.70;;;;;;;10.20;32.24;101313.22;8243989;34;21112;-75
2022/03/02 10:26:11;;;;;;;14.85;8.68;;;;;;;10.20;32.63;101310.53;8258541;34;20157;-75
2022/03/02 10:31:56;;;;;;;13.90;8.50;;;;;;;10.13;31.81;101316.31;8252148;34;20785;-75
2022/03/02 10:37:24;;;;;;;12.65;8.00;;;;;;;10.99;29.49;101310.59;8238232;34;20929;-75
2022/03/02 10:42:30;;;;;;;11.52;7.75;;;;;;;11.98;27.98;101309.13;8232261;34;21238;-76
2022/03/02 10:47:42;;;;;;;12.95;8.32;;;;;;;11.48;27.41;101299.16;8239586;34;20634;-74
2022/03/02 10:52:48;;;;;;;10.13;7.25;;;;;;;11.86;28.96;101292.88;8240026;34;20469;-75
2022/03/02 10:57:54;;;;;;;11.60;7.57;;;;;;;12.10;27.73;101290.25;8242342;34;20477;-74
2022/03/02 11:02:59;;;;;;;11.25;8.35;;;;;;;12.75;28.15;101288.16;8261940;34;20535;-74
2022/03/02 11:08:04;;;;;;;11.55;8.55;;;;;;;12.78;26.96;101279.81;8251186;34;20254;-75
2022/03/02 11:13:12;;;;;;;12.20;8.32;;;;;;;11.97;26.25;101273.25;8254508;34;20525;-75
2022/03/02 11:18:17;;;;;;;11.27;8.13;;;;;;;12.66;27.18;101270.00;8246936;34;20176;-75
2022/03/02 11:23:24;;;;;;;11.70;8.15;;;;;;;12.99;25.91;101275.47;8244506;34;20477;-75
2022/03/02 11:28:27;;;;;;;12.10;8.27;;;;;;;13.29;26.65;101263.28;8241702;34;20252;-75
2022/03/02 11:39:54;;;;;;;12.85;8.45;;;;;;;15.50;24.31;101239.53;8291210;34;20148;-73
2022/03/02 11:44:59;;;;;;;12.65;7.95;;;;;;;15.92;23.75;101217.72;8311354;34;20421;-75
2022/03/02 11:50:03;;;;;;;10.68;7.65;;;;;;;16.35;23.52;101219.22;8300375;34;20144;-73
2022/03/02 11:55:10;;;;;;;11.75;8.52;;;;;;;16.23;23.14;101213.03;8296965;34;20504;-74
2022/03/02 12:00:17;;;;;;;10.20;7.65;;;;;;;16.54;22.46;101204.81;8297656;34;20848;-73
2022/03/02 12:05:24;;;;;;;10.77;8.23;;;;;;;17.42;22.49;101195.50;8298511;34;20435;-73
2022/03/02 12:10:32;;;;;;;11.07;8.25;;;;;;;17.69;21.73;101186.50;8302258;34;20437;-73
2022/03/02 12:15:44;;;;;;;11.20;7.82;;;;;;;18.00;21.47;101182.63;8301745;34;20144;-73
2022/03/02 12:20:50;;;;;;;11.32;8.23;;;;;;;18.02;21.92;101175.16;8302985;34;20243;-74
2022/03/02 12:25:56;;;;;;;12.75;8.20;;;;;;;18.06;20.37;101173.84;8301495;34;20156;-74
2022/03/02 12:30:59;;;;;;;8.13;7.20;;;;;;;17.97;22.13;101158.44;8302896;34;20907;-73
2022/03/02 12:36:06;;;;;;;10.60;7.55;;;;;;;17.33;21.10;101161.06;8299663;34;20152;-73
2022/03/02 12:41:10;;;;;;;9.35;7.07;;;;;;;18.02;19.17;101153.41;8302861;34;20147;-74
2022/03/02 12:46:13;;;;;;;11.50;7.15;;;;;;;18.16;18.94;101155.59;8302406;34;21042;-74
2022/03/02 12:51:18;;;;;;;8.23;7.18;;;;;;;18.02;19.87;101148.84;8312042;34;20447;-74
2022/03/02 12:56:23;;;;;;;10.80;7.22;;;;;;;18.19;18.82;101146.28;8314600;34;20688;-74
2022/03/02 13:01:27;;;;;;;8.82;7.38;;;;;;;17.72;19.62;101133.72;8315538;34;20672;-73
2022/03/02 13:06:38;;;;;;;9.05;7.20;;;;;;;17.22;20.61;101135.00;8315550;34;21046;-73
2022/03/02 13:11:43;;;;;;;8.00;7.03;;;;;;;17.02;21.10;101127.88;8315868;34;20952;-74
2022/03/02 13:16:48;;;;;;;9.93;7.80;;;;;;;17.27;21.40;101125.53;8307356;34;20428;-75
2022/03/02 13:21:59;;;;;;;10.07;7.45;;;;;;;16.85;21.38;101121.38;8302300;34;20144;-74
2022/03/02 13:27:10;;;;;;;11.13;8.23;;;;;;;17.28;21.16;101125.41;8315838;34;20532;-74
2022/03/02 13:32:13;;;;;;;15.25;8.57;;;;;;;16.90;22.14;101120.94;8306579;34;20883;-74
2022/03/02 13:37:16;;;;;;;10.00;8.40;;;;;;;17.90;21.56;101120.13;8305326;34;20462;-73
2022/03/02 13:42:24;;;;;;;10.02;8.52;;;;;;;20.43;20.21;101100.66;8305482;34;20885;-74
2022/03/02 13:47:28;;;;;;;11.90;8.45;;;;;;;20.86;19.63;101104.00;8301367;34;20152;-74
2022/03/02 13:52:59;;;;;;;10.15;8.38;;;;;;;20.54;19.72;101103.91;8301082;34;20621;-74
2022/03/02 13:58:29;;;;;;;10.68;8.13;;;;;;;20.50;19.45;101105.25;8299413;34;20227;-74
2022/03/02 14:03:39;;;;;;;11.00;8.48;;;;;;;21.08;19.12;101091.50;8300003;34;20436;-74
2022/03/02 14:08:48;;;;;;;9.90;7.80;;;;;;;21.62;18.96;101095.19;8272289;34;20565;-74
2022/03/02 14:13:52;;;;;;;10.45;7.97;;;;;;;21.97;19.00;101087.47;8241046;34;20159;-74
2022/03/02 14:19:10;;;;;;;9.55;7.72;;;;;;;21.70;18.79;101083.34;8245278;34;20449;-74
2022/03/02 14:24:16;;;;;;;9.23;7.38;;;;;;;21.32;19.17;101085.09;8224856;34;20497;-74
2022/03/02 14:29:21;;;;;;;9.63;7.47;;;;;;;20.71;18.14;101085.63;8243391;34;20196;-74
2022/03/02 14:34:26;;;;;;;7.93;6.68;;;;;;;20.56;18.66;101079.16;8244006;34;20227;-74
2022/03/02 14:39:30;;;;;;;9.15;6.82;;;;;;;20.13;18.42;101079.34;8246456;34;20547;-74
2022/03/02 14:44:34;;;;;;;8.68;6.72;;;;;;;19.78;18.61;101068.75;8242398;34;20574;-74
2022/03/02 14:49:40;;;;;;;9.98;6.90;;;;;;;18.94;19.30;101062.31;8237161;34;20441;-74
2022/03/02 14:54:43;;;;;;;9.13;7.13;;;;;;;17.85;20.52;101060.84;8239983;34;20467;-74
2022/03/02 14:59:48;;;;;;;9.25;7.25;;;;;;;17.22;21.09;101055.38;8236986;34;20967;-74
2022/03/02 15:04:56;;;;;;;8.50;6.85;;;;;;;16.34;21.46;101062.97;8236755;34;20462;-74
2022/03/02 15:10:06;;;;;;;9.77;7.63;;;;;;;16.01;21.92;101048.00;8240464;34;20141;-73
2022/03/02 15:15:16;;;;;;;9.73;8.15;;;;;;;15.62;23.11;101048.00;8246013;34;20642;-72
2022/03/02 15:20:19;;;;;;;11.25;8.60;;;;;;;15.33;23.82;101042.50;8243563;34;20172;-72
2022/03/02 15:25:23;;;;;;;12.25;8.77;;;;;;;14.97;25.14;101042.13;8247755;34;20435;-72
2022/03/02 15:30:32;;;;;;;15.05;9.45;;;;;;;14.62;25.71;101032.59;8249502;34;20562;-73
2022/03/02 15:35:37;;;;;;;12.73;8.07;;;;;;;14.57;26.27;101040.25;8248941;34;20960;-72
2022/03/02 15:40:40;;;;;;;12.20;8.25;;;;;;;14.10;26.35;101029.84;8249580;34;20284;-73
2022/03/02 15:45:47;;;;;;;12.35;8.38;;;;;;;13.69;26.94;101026.13;8249410;34;20479;-73
2022/03/02 15:50:53;;;;;;;12.52;8.32;;;;;;;13.38;27.78;101024.25;8249164;34;20133;-73
2022/03/02 15:55:59;;;;;;;13.68;8.23;;;;;;;12.77;28.17;101017.47;8256177;34;21080;-73
2022/03/02 16:01:04;;;;;;;12.45;8.52;;;;;;;12.27;29.03;101018.75;8248815;34;20436;-73
2022/03/02 16:06:12;;;;;;;14.52;8.63;;;;;;;11.86;30.01;101034.44;8248367;34;20141;-73
2022/03/02 16:11:18;;;;;;;18.75;9.25;;;;;;;11.62;29.83;101028.22;8241164;34;20650;-74
2022/03/02 16:16:23;;;;;;;19.20;9.23;;;;;;;11.56;30.32;101020.63;8247463;34;20449;-74
2022/03/02 16:21:26;;;;;;;13.45;8.98;;;;;;;11.37;30.71;101021.97;8248870;34;20141;-74
2022/03/02 16:26:30;;;;;;;15.63;9.63;;;;;;;11.00;31.41;101021.13;8242549;34;20148;-75
2022/03/02 16:31:37;;;;;;;15.77;10.00;;;;;;;10.75;31.78;101009.47;8215653;34;20461;-75
2022/03/02 16:36:46;;;;;;;15.80;10.30;;;;;;;10.47;32.31;101025.81;8221007;34;20533;-75
2022/03/02 16:41:49;;;;;;;14.30;9.82;;;;;;;10.25;32.84;101011.19;8277652;34;20161;-74
2022/03/02 16:46:59;;;;;;;19.33;10.38;;;;;;;9.83;33.59;101021.22;8254546;34;20649;-74
2022/03/02 16:52:02;;;;;;;16.42;10.15;;;;;;;9.35;34.43;101020.88;8239588;34;20750;-75
2022/03/02 16:57:05;;;;;;;19.50;10.98;;;;;;;8.82;35.25;101017.16;8239963;34;20574;-75
2022/03/02 17:02:10;;;;;;;20.48;12.15;;;;;;;8.51;36.14;101018.22;8249549;34;20598;-74
2022/03/02 17:07:13;;;;;;;20.80;11.90;;;;;;;8.24;37.08;101018.09;8270745;34;20586;-74
2022/03/02 17:12:16;;;;;;;21.27;11.88;;;;;;;7.95;37.32;101021.56;8270955;34;20528;-74
2022/03/02 17:17:21;;;;;;;21.42;11.40;;;;;;;7.72;37.92;101022.94;8272278;34;20535;-75
2022/03/02 17:22:26;;;;;;;21.85;11.95;;;;;;;7.55;38.27;101019.53;8262454;34;20291;-74
2022/03/02 17:27:29;;;;;;;21.67;11.85;;;;;;;7.44;38.29;101020.16;8262825;34;20152;-74
2022/03/02 17:32:34;;;;;;;20.85;12.45;;;;;;;7.39;38.56;101024.91;8266275;34;20651;-74
2022/03/02 17:37:37;;;;;;;21.88;13.57;;;;;;;7.30;38.44;101014.75;8255834;34;20191;-75
2022/03/02 17:42:40;;;;;;;19.63;11.88;;;;;;;7.15;39.07;101016.47;8248876;34;20450;-75
2022/03/02 17:47:46;;;;;;;20.70;12.55;;;;;;;7.04;39.30;101020.59;8255337;34;20456;-75
2022/03/02 17:52:49;;;;;;;26.98;14.23;;;;;;;6.97;39.82;101021.06;8252021;34;20154;-75
2022/03/02 17:57:52;;;;;;;23.58;13.18;;;;;;;6.75;40.04;101024.88;8237176;34;20157;-75
2022/03/02 18:02:57;;;;;;;27.10;14.60;;;;;;;6.57;41.07;101026.72;8226739;34;20445;-75
2022/03/02 18:08:01;;;;;;;27.70;17.98;;;;;;;6.39;41.16;101017.91;8241548;34;20145;-75
2022/03/02 18:13:04;;;;;;;36.85;18.65;;;;;;;6.32;41.56;101023.66;8251752;34;20129;-75
2022/03/02 18:18:09;;;;;;;29.05;16.67;;;;;;;6.19;41.52;101026.09;8251032;34;20148;-73
2022/03/02 18:23:12;;;;;;;27.05;15.43;;;;;;;6.08;42.03;101028.47;8249539;34;20622;-73
2022/03/02 18:28:15;;;;;;;38.75;21.60;;;;;;;6.01;42.14;101027.94;8250094;34;20972;-73
2022/03/02 18:33:20;;;;;;;30.00;16.83;;;;;;;5.91;42.12;101026.69;8251331;34;21050;-74
2022/03/02 18:38:23;;;;;;;23.23;13.65;;;;;;;5.77;42.25;101032.72;8251583;34;20651;-74
2022/03/02 18:43:26;;;;;;;23.10;13.52;;;;;;;5.61;42.55;101026.44;8262960;34;20508;-74
2022/03/02 18:48:30;;;;;;;29.23;15.13;;;;;;;5.58;42.54;101030.09;8249645;34;20499;-73
2022/03/02 18:53:34;;;;;;;23.50;13.52;;;;;;;5.44;42.75;101036.13;8249727;34;20502;-74
2022/03/02 18:58:37;;;;;;;22.00;13.18;;;;;;;5.24;43.26;101028.25;8248453;34;20145;-74
2022/03/02 19:03:43;;;;;;;23.23;13.52;;;;;;;5.15;43.41;101036.66;8249157;34;20203;-74
2022/03/02 19:08:46;;;;;;;21.17;12.45;;;;;;;5.02;43.24;101039.94;8250500;34;20596;-74
2022/03/02 19:13:50;;;;;;;18.88;12.18;;;;;;;4.81;43.11;101038.25;8249847;34;20155;-74
2022/03/02 19:18:54;;;;;;;24.67;15.18;;;;;;;4.87;43.58;101040.59;8251828;34;20160;-74
2022/03/02 19:23:59;;;;;;;26.90;17.50;;;;;;;4.88;43.38;101047.66;8248764;34;20499;-74
2022/03/02 19:29:03;;;;;;;28.63;15.45;;;;;;;4.88;43.32;101042.31;8242287;34;21153;-74
2022/03/02 19:34:09;;;;;;;25.65;14.95;;;;;;;4.84;43.53;101043.41;8244372;34;20591;-74
2022/03/02 19:44:35;;;;;;;28.98;15.38;;;;;;;4.68;43.71;101035.28;8253977;34;20618;-74
2022/03/02 19:49:42;;;;;;;23.63;14.38;;;;;;;4.58;44.20;101037.50;8246096;34;20622;-74
2022/03/02 19:54:45;;;;;;;25.63;15.38;;;;;;;4.50;44.67;101030.78;8247194;34;20157;-74
2022/03/02 19:59:51;;;;;;;25.05;14.68;;;;;;;4.29;44.73;101033.50;8246538;34;20434;-74
2022/03/02 20:04:56;;;;;;;25.17;15.50;;;;;;;4.12;45.12;101036.03;8250526;34;20585;-74
2022/03/02 20:10:03;;;;;;;21.42;13.27;;;;;;;4.09;44.76;101046.81;8252768;34;20428;-74
2022/03/02 20:15:07;;;;;;;25.30;14.57;;;;;;;4.04;44.33;101036.38;8263183;34;20703;-74
2022/03/02 20:20:12;;;;;;;23.67;12.73;;;;;;;4.05;45.23;101045.19;8253447;34;20513;-74
2022/03/02 20:25:15;;;;;;;24.80;13.93;;;;;;;4.17;45.60;101028.72;8266066;34;20571;-74
2022/03/02 20:30:19;;;;;;;23.42;14.00;;;;;;;4.13;45.41;101017.34;8266882;34;20148;-74
2022/03/02 20:35:24;;;;;;;26.48;15.55;;;;;;;4.05;46.20;101023.94;8267519;34;20248;-74
2022/03/02 20:40:41;;;;;;;25.15;13.32;;;;;;;4.04;45.64;101028.41;8268979;34;20148;-74
2022/03/02 20:45:45;;;;;;;29.02;15.20;;;;;;;3.97;46.01;101026.06;8266993;34;20195;-73
2022/03/02 20:50:52;;;;;;;25.48;14.30;;;;;;;3.86;46.33;101026.53;8263652;34;20464;-75
2022/03/02 20:55:56;;;;;;;22.75;12.43;;;;;;;3.77;46.08;101025.13;8263297;34;20136;-75
2022/03/02 21:00:59;;;;;;;25.00;12.60;;;;;;;3.62;46.67;101026.66;8262464;35;20668;-76
2022/03/02 21:06:05;;;;;;;23.98;13.05;;;;;;;3.42;46.90;101027.44;8252364;35;21063;-74
2022/03/02 21:11:08;;;;;;;21.85;13.05;;;;;;;3.28;47.04;101028.00;8248402;35;20448;-73
2022/03/02 21:16:12;;;;;;;25.77;14.70;;;;;;;3.30;47.43;101030.63;8249123;35;20445;-73
2022/03/02 21:21:17;;;;;;;27.15;15.20;;;;;;;3.28;47.71;101028.00;8248699;35;20540;-74
2022/03/02 21:26:21;;;;;;;23.55;13.27;;;;;;;3.20;48.22;101034.56;8248769;35;20458;-74
2022/03/02 21:31:24;;;;;;;28.70;15.07;;;;;;;3.16;48.25;101036.50;8249151;35;20434;-73
2022/03/02 21:36:29;;;;;;;26.90;14.93;;;;;;;3.08;47.98;101038.56;8247647;35;20152;-74
2022/03/02 21:41:33;;;;;;;28.35;14.73;;;;;;;2.93;48.96;101029.41;8246824;35;20488;-76
2022/03/02 21:46:36;;;;;;;28.50;16.70;;;;;;;2.68;49.22;101029.50;8250582;34;20177;-76
2022/03/02 21:51:40;;;;;;;29.80;16.77;;;;;;;2.57;49.85;101037.00;8251015;34;20547;-75
2022/03/02 21:56:43;;;;;;;30.02;16.20;;;;;;;2.61;49.81;101028.00;8251944;34;20552;-75
2022/03/02 22:01:46;;;;;;;31.95;18.38;;;;;;;2.51;49.75;101022.13;8251622;34;20532;-75
2022/03/02 22:06:51;;;;;;;28.52;18.17;;;;;;;2.47;50.37;101025.84;8255589;34;20443;-75
2022/03/02 22:11:54;;;;;;;35.85;20.58;;;;;;;2.48;50.73;101018.75;8252196;34;20458;-75
2022/03/02 22:16:57;;;;;;;34.42;19.35;;;;;;;2.41;50.87;101018.09;8251356;34;20469;-77
2022/03/02 22:22:02;;;;;;;32.65;17.73;;;;;;;2.33;51.24;101012.22;8253528;34;20302;-76
2022/03/02 22:27:05;;;;;;;35.03;17.95;;;;;;;2.33;51.47;101009.56;8252366;34;20163;-75
2022/03/02 22:32:09;;;;;;;36.13;17.85;;;;;;;2.31;52.21;101008.75;8238619;34;20546;-75
2022/03/02 22:37:14;;;;;;;31.63;17.58;;;;;;;2.22;52.06;101011.72;8246973;34;20430;-75
2022/03/02 22:42:17;;;;;;;31.42;16.17;;;;;;;2.16;51.92;101013.69;8251357;34;20365;-75
2022/03/02 22:47:20;;;;;;;29.52;15.75;;;;;;;2.01;52.00;101008.94;8250527;34;20591;-75
2022/03/02 22:52:25;;;;;;;33.03;17.98;;;;;;;2.06;52.02;101008.78;8248578;34;21092;-75
2022/03/02 22:57:29;;;;;;;32.17;15.90;;;;;;;1.99;51.86;101009.91;8247629;34;20421;-75
2022/03/02 23:02:32;;;;;;;33.70;17.60;;;;;;;1.99;52.03;101015.22;8247259;34;20580;-75
2022/03/02 23:18:18;;;;;;;27.58;15.77;;;;;;;1.92;51.95;101010.16;8247596;34;20740;-75
2022/03/02 23:23:22;;;;;;;30.15;16.38;;;;;;;1.79;52.23;101000.88;8247601;34;20265;-75
2022/03/02 23:28:25;;;;;;;32.10;16.98;;;;;;;1.65;53.04;101003.16;8245714;34;20554;-75
2022/03/02 23:33:29;;;;;;;32.50;16.65;;;;;;;1.60;53.31;101007.72;8237540;34;20445;-75
2022/03/02 23:38:33;;;;;;;31.17;17.15;;;;;;;1.74;53.36;101002.81;8243559;34;20638;-75
2022/03/02 23:43:36;;;;;;;33.20;17.13;;;;;;;1.79;53.37;100998.25;8244170;34;20446;-75
2022/03/02 23:48:39;;;;;;;31.83;17.92;;;;;;;1.62;53.41;100992.63;8242155;34;20466;-75
2022/03/02 23:53:43;;;;;;;33.42;16.25;;;;;;;1.71;53.79;100987.03;8241946;34;20946;-75